sensor_id;sensor_type;location;lat;lon;timestamp;temperature;humidity
49222;DHT22;35047;37.588;-122.048;2024-01-15T00:02:07;20.70;78.00
49222;DHT22;35047;37.588;-122.048;2024-01-15T00:04:38;20.70;78.50
49222;DHT22;35047;37.588;-122.048;2024-01-15T00:07:05;20.60;78.10
49222;DHT22;35047;37.588;-122.048;2024-01-15T00:09:32;20.60;78.10
49222;DHT22;35047;37.588;-122.048;2024-01-15T00:11:59;20.50;78.40
49222;DHT22;35047;37.588;-122.048;2024-01-15T00:14:26;20.50;78.70
49222;DHT22;35047;37.588;-122.048;2024-01-15T00:16:52;20.40;78.90
49222;DHT22;35047;37.588;-122.048;2024-01-15T00:19:21;20.30;79.50
49222;DHT22;35047;37.588;-122.048;2024-01-15T00:21:49;20.30;80.30
49222;DHT22;35047;37.588;-122.048;2024-01-15T00:24:16;20.20;79.70
49222;DHT22;35047;37.588;-122.048;2024-01-15T00:26:42;20.20;79.80
49222;DHT22;35047;37.588;-122.048;2024-01-15T00:29:09;20.20;80.20
49222;DHT22;35047;37.588;-122.048;2024-01-15T00:31:36;20.10;80.70
49222;DHT22;35047;37.588;-122.048;2024-01-15T00:34:02;20.10;80.80
49222;DHT22;35047;37.588;-122.048;2024-01-15T00:36:29;20.10;81.20
49222;DHT22;35047;37.588;-122.048;2024-01-15T00:38:56;20.10;81.20
49222;DHT22;35047;37.588;-122.048;2024-01-15T00:41:22;20.10;81.50
49222;DHT22;35047;37.588;-122.048;2024-01-15T00:43:49;20.00;81.80
49222;DHT22;35047;37.588;-122.048;2024-01-15T00:46:15;20.00;81.80
49222;DHT22;35047;37.588;-122.048;2024-01-15T00:48:42;19.90;82.10
49222;DHT22;35047;37.588;-122.048;2024-01-15T00:51:08;19.90;82.20
49222;DHT22;35047;37.588;-122.048;2024-01-15T00:53:35;19.80;82.60
49222;DHT22;35047;37.588;-122.048;2024-01-15T00:56:01;19.80;82.80
49222;DHT22;35047;37.588;-122.048;2024-01-15T00:58:29;19.80;82.90
49222;DHT22;35047;37.588;-122.048;2024-01-15T01:00:55;19.70;83.10
49222;DHT22;35047;37.588;-122.048;2024-01-15T01:03:22;19.70;83.30
49222;DHT22;35047;37.588;-122.048;2024-01-15T01:05:51;19.60;83.40
49222;DHT22;35047;37.588;-122.048;2024-01-15T01:08:17;19.60;83.50
49222;DHT22;35047;37.588;-122.048;2024-01-15T01:10:44;19.50;83.60
49222;DHT22;35047;37.588;-122.048;2024-01-15T01:13:11;19.40;83.70
49222;DHT22;35047;37.588;-122.048;2024-01-15T01:15:37;19.40;84.10
49222;DHT22;35047;37.588;-122.048;2024-01-15T01:18:04;19.30;84.30
49222;DHT22;35047;37.588;-122.048;2024-01-15T01:20:31;19.20;84.90
49222;DHT22;35047;37.588;-122.048;2024-01-15T01:22:57;19.20;85.10
49222;DHT22;35047;37.588;-122.048;2024-01-15T01:25:24;19.10;85.20
49222;DHT22;35047;37.588;-122.048;2024-01-15T01:27:50;19.10;85.40
49222;DHT22;35047;37.588;-122.048;2024-01-15T01:30:17;19.00;85.50
49222;DHT22;35047;37.588;-122.048;2024-01-15T01:32:43;19.00;85.70
49222;DHT22;35047;37.588;-122.048;2024-01-15T01:35:10;18.90;86.00
49222;DHT22;35047;37.588;-122.048;2024-01-15T01:37:36;18.90;86.40
49222;DHT22;35047;37.588;-122.048;2024-01-15T01:40:03;18.90;86.70
49222;DHT22;35047;37.588;-122.048;2024-01-15T01:42:29;18.80;86.90
49222;DHT22;35047;37.588;-122.048;2024-01-15T01:44:56;18.80;87.10
49222;DHT22;35047;37.588;-122.048;2024-01-15T01:47:23;18.70;87.40
49222;DHT22;35047;37.588;-122.048;2024-01-15T01:49:53;18.70;88.10
49222;DHT22;35047;37.588;-122.048;2024-01-15T01:52:20;18.60;87.50
49222;DHT22;35047;37.588;-122.048;2024-01-15T01:54:46;18.60;87.70
49222;DHT22;35047;37.588;-122.048;2024-01-15T01:57:14;18.50;87.70
49222;DHT22;35047;37.588;-122.048;2024-01-15T01:59:41;18.50;87.80
49222;DHT22;35047;37.588;-122.048;2024-01-15T02:02:08;18.50;87.90
49222;DHT22;35047;37.588;-122.048;2024-01-15T02:04:35;18.40;88.00
49222;DHT22;35047;37.588;-122.048;2024-01-15T02:07:02;18.30;88.20
49222;DHT22;35047;37.588;-122.048;2024-01-15T02:09:30;18.30;88.30
49222;DHT22;35047;37.588;-122.048;2024-01-15T02:11:57;18.20;88.50
49222;DHT22;35047;37.588;-122.048;2024-01-15T02:14:24;18.20;88.50
49222;DHT22;35047;37.588;-122.048;2024-01-15T02:16:51;18.10;88.60
49222;DHT22;35047;37.588;-122.048;2024-01-15T02:19:18;18.10;88.50
49222;DHT22;35047;37.588;-122.048;2024-01-15T02:21:44;18.00;88.50
49222;DHT22;35047;37.588;-122.048;2024-01-15T02:24:11;18.00;88.50
49222;DHT22;35047;37.588;-122.048;2024-01-15T02:26:38;17.90;88.70
49222;DHT22;35047;37.588;-122.048;2024-01-15T02:29:08;17.90;88.70
49222;DHT22;35047;37.588;-122.048;2024-01-15T02:31:36;17.80;88.80
49222;DHT22;35047;37.588;-122.048;2024-01-15T02:34:03;17.70;88.90
49222;DHT22;35047;37.588;-122.048;2024-01-15T02:36:30;17.70;88.90
49222;DHT22;35047;37.588;-122.048;2024-01-15T02:38:56;17.60;89.00
49222;DHT22;35047;37.588;-122.048;2024-01-15T02:41:23;17.60;89.40
49222;DHT22;35047;37.588;-122.048;2024-01-15T02:43:49;17.50;89.50
49222;DHT22;35047;37.588;-122.048;2024-01-15T02:46:16;17.50;89.60
49222;DHT22;35047;37.588;-122.048;2024-01-15T02:48:42;17.50;89.80
49222;DHT22;35047;37.588;-122.048;2024-01-15T02:51:09;17.50;89.60
49222;DHT22;35047;37.588;-122.048;2024-01-15T02:53:36;17.40;89.80
49222;DHT22;35047;37.588;-122.048;2024-01-15T02:56:03;17.40;89.90
49222;DHT22;35047;37.588;-122.048;2024-01-15T02:58:29;17.30;90.00
49222;DHT22;35047;37.588;-122.048;2024-01-15T03:00:56;17.30;90.00
49222;DHT22;35047;37.588;-122.048;2024-01-15T03:03:22;17.20;90.10
49222;DHT22;35047;37.588;-122.048;2024-01-15T03:05:49;17.20;90.20
49222;DHT22;35047;37.588;-122.048;2024-01-15T03:08:15;17.20;90.10
49222;DHT22;35047;37.588;-122.048;2024-01-15T03:10:42;17.20;90.30
49222;DHT22;35047;37.588;-122.048;2024-01-15T03:13:08;17.10;90.00
49222;DHT22;35047;37.588;-122.048;2024-01-15T03:15:35;17.10;90.10
49222;DHT22;35047;37.588;-122.048;2024-01-15T03:18:01;17.00;90.10
49222;DHT22;35047;37.588;-122.048;2024-01-15T03:20:27;17.00;90.30
49222;DHT22;35047;37.588;-122.048;2024-01-15T03:22:54;17.00;90.40
49222;DHT22;35047;37.588;-122.048;2024-01-15T03:25:20;17.00;90.30
49222;DHT22;35047;37.588;-122.048;2024-01-15T03:27:47;16.90;90.30
49222;DHT22;35047;37.588;-122.048;2024-01-15T03:30:14;16.90;90.30
49222;DHT22;35047;37.588;-122.048;2024-01-15T03:32:40;16.80;90.20
49222;DHT22;35047;37.588;-122.048;2024-01-15T03:35:07;16.80;90.20
49222;DHT22;35047;37.588;-122.048;2024-01-15T03:37:33;16.80;90.40
49222;DHT22;35047;37.588;-122.048;2024-01-15T03:40:00;16.70;90.40
49222;DHT22;35047;37.588;-122.048;2024-01-15T03:42:26;16.70;90.50
49222;DHT22;35047;37.588;-122.048;2024-01-15T03:44:52;16.70;90.80
49222;DHT22;35047;37.588;-122.048;2024-01-15T03:47:19;16.60;90.80
49222;DHT22;35047;37.588;-122.048;2024-01-15T03:49:45;16.60;90.70
49222;DHT22;35047;37.588;-122.048;2024-01-15T03:52:12;16.60;90.80
49222;DHT22;35047;37.588;-122.048;2024-01-15T03:54:38;16.50;90.70
49222;DHT22;35047;37.588;-122.048;2024-01-15T03:57:05;16.50;90.70
49222;DHT22;35047;37.588;-122.048;2024-01-15T03:59:32;16.50;90.70
49222;DHT22;35047;37.588;-122.048;2024-01-15T04:01:58;16.50;91.00
49222;DHT22;35047;37.588;-122.048;2024-01-15T04:04:24;16.40;90.80
49222;DHT22;35047;37.588;-122.048;2024-01-15T04:06:51;16.30;90.80
49222;DHT22;35047;37.588;-122.048;2024-01-15T04:09:17;16.30;90.80
49222;DHT22;35047;37.588;-122.048;2024-01-15T04:11:44;16.30;90.90
49222;DHT22;35047;37.588;-122.048;2024-01-15T04:14:10;16.30;90.80
49222;DHT22;35047;37.588;-122.048;2024-01-15T04:16:37;16.30;90.80
49222;DHT22;35047;37.588;-122.048;2024-01-15T04:19:04;16.20;90.90
49222;DHT22;35047;37.588;-122.048;2024-01-15T04:21:30;16.20;90.90
49222;DHT22;35047;37.588;-122.048;2024-01-15T04:23:57;16.20;91.00
49222;DHT22;35047;37.588;-122.048;2024-01-15T04:26:24;16.10;90.90
49222;DHT22;35047;37.588;-122.048;2024-01-15T04:28:50;16.10;91.00
49222;DHT22;35047;37.588;-122.048;2024-01-15T04:31:24;16.10;91.00
49222;DHT22;35047;37.588;-122.048;2024-01-15T04:33:50;16.10;91.10
49222;DHT22;35047;37.588;-122.048;2024-01-15T04:36:17;16.00;91.00
49222;DHT22;35047;37.588;-122.048;2024-01-15T04:38:43;16.00;91.10
49222;DHT22;35047;37.588;-122.048;2024-01-15T04:41:14;15.90;91.00
49222;DHT22;35047;37.588;-122.048;2024-01-15T04:43:42;15.90;91.10
49222;DHT22;35047;37.588;-122.048;2024-01-15T04:46:08;15.90;91.10
49222;DHT22;35047;37.588;-122.048;2024-01-15T04:48:35;15.90;91.00
49222;DHT22;35047;37.588;-122.048;2024-01-15T04:51:04;15.80;91.00
49222;DHT22;35047;37.588;-122.048;2024-01-15T04:53:32;15.80;91.00
49222;DHT22;35047;37.588;-122.048;2024-01-15T04:55:59;15.70;90.80
49222;DHT22;35047;37.588;-122.048;2024-01-15T04:58:26;15.70;90.80
49222;DHT22;35047;37.588;-122.048;2024-01-15T05:00:53;15.70;90.80
49222;DHT22;35047;37.588;-122.048;2024-01-15T05:03:22;15.70;90.90
49222;DHT22;35047;37.588;-122.048;2024-01-15T05:05:49;15.60;90.80
49222;DHT22;35047;37.588;-122.048;2024-01-15T05:08:15;15.60;90.80
49222;DHT22;35047;37.588;-122.048;2024-01-15T05:10:42;15.60;90.90
49222;DHT22;35047;37.588;-122.048;2024-01-15T05:13:08;15.50;91.10
49222;DHT22;35047;37.588;-122.048;2024-01-15T05:15:35;15.50;91.10
49222;DHT22;35047;37.588;-122.048;2024-01-15T05:18:01;15.50;91.10
49222;DHT22;35047;37.588;-122.048;2024-01-15T05:20:28;15.50;91.20
49222;DHT22;35047;37.588;-122.048;2024-01-15T05:22:54;15.40;91.30
49222;DHT22;35047;37.588;-122.048;2024-01-15T05:25:21;15.40;91.20
49222;DHT22;35047;37.588;-122.048;2024-01-15T05:27:47;15.30;91.30
49222;DHT22;35047;37.588;-122.048;2024-01-15T05:30:14;15.30;91.40
49222;DHT22;35047;37.588;-122.048;2024-01-15T05:32:41;15.30;91.50
49222;DHT22;35047;37.588;-122.048;2024-01-15T05:35:07;15.20;91.50
49222;DHT22;35047;37.588;-122.048;2024-01-15T05:37:34;15.20;91.40
49222;DHT22;35047;37.588;-122.048;2024-01-15T05:40:01;15.20;91.50
49222;DHT22;35047;37.588;-122.048;2024-01-15T05:42:27;15.20;91.50
49222;DHT22;35047;37.588;-122.048;2024-01-15T05:44:56;15.20;91.40
49222;DHT22;35047;37.588;-122.048;2024-01-15T05:47:24;15.10;91.50
49222;DHT22;35047;37.588;-122.048;2024-01-15T05:49:50;15.10;91.60
49222;DHT22;35047;37.588;-122.048;2024-01-15T05:52:17;15.00;91.50
49222;DHT22;35047;37.588;-122.048;2024-01-15T05:54:43;15.00;91.60
49222;DHT22;35047;37.588;-122.048;2024-01-15T05:57:10;15.00;91.50
49222;DHT22;35047;37.588;-122.048;2024-01-15T05:59:36;14.90;91.50
49222;DHT22;35047;37.588;-122.048;2024-01-15T06:02:03;14.90;91.40
49222;DHT22;35047;37.588;-122.048;2024-01-15T06:04:30;14.90;91.40
49222;DHT22;35047;37.588;-122.048;2024-01-15T06:06:56;14.80;91.50
49222;DHT22;35047;37.588;-122.048;2024-01-15T06:09:23;14.80;91.60
49222;DHT22;35047;37.588;-122.048;2024-01-15T06:11:49;14.80;91.50
49222;DHT22;35047;37.588;-122.048;2024-01-15T06:14:16;14.80;91.40
49222;DHT22;35047;37.588;-122.048;2024-01-15T06:16:43;14.70;91.40
49222;DHT22;35047;37.588;-122.048;2024-01-15T06:19:09;14.70;91.50
49222;DHT22;35047;37.588;-122.048;2024-01-15T06:21:36;14.70;91.70
49222;DHT22;35047;37.588;-122.048;2024-01-15T06:24:03;14.70;91.70
49222;DHT22;35047;37.588;-122.048;2024-01-15T06:26:29;14.70;91.80
49222;DHT22;35047;37.588;-122.048;2024-01-15T06:28:55;14.60;91.80
49222;DHT22;35047;37.588;-122.048;2024-01-15T06:31:22;14.60;91.60
49222;DHT22;35047;37.588;-122.048;2024-01-15T06:33:49;14.60;91.50
49222;DHT22;35047;37.588;-122.048;2024-01-15T06:36:15;14.60;91.50
49222;DHT22;35047;37.588;-122.048;2024-01-15T06:38:44;14.60;91.60
49222;DHT22;35047;37.588;-122.048;2024-01-15T06:41:11;14.60;91.50
49222;DHT22;35047;37.588;-122.048;2024-01-15T06:43:37;14.50;91.40
49222;DHT22;35047;37.588;-122.048;2024-01-15T06:46:04;14.50;91.50
49222;DHT22;35047;37.588;-122.048;2024-01-15T06:48:30;14.50;91.60
49222;DHT22;35047;37.588;-122.048;2024-01-15T06:50:57;14.50;91.50
49222;DHT22;35047;37.588;-122.048;2024-01-15T06:53:23;14.40;91.40
49222;DHT22;35047;37.588;-122.048;2024-01-15T06:55:50;14.40;91.60
49222;DHT22;35047;37.588;-122.048;2024-01-15T06:58:18;14.40;91.70
49222;DHT22;35047;37.588;-122.048;2024-01-15T07:00:44;14.40;91.80
49222;DHT22;35047;37.588;-122.048;2024-01-15T07:03:11;14.30;91.70
49222;DHT22;35047;37.588;-122.048;2024-01-15T07:05:37;14.30;91.70
49222;DHT22;35047;37.588;-122.048;2024-01-15T07:08:04;14.30;91.60
49222;DHT22;35047;37.588;-122.048;2024-01-15T07:10:30;14.20;91.90
49222;DHT22;35047;37.588;-122.048;2024-01-15T07:12:57;14.20;91.80
49222;DHT22;35047;37.588;-122.048;2024-01-15T07:15:23;14.20;91.80
49222;DHT22;35047;37.588;-122.048;2024-01-15T07:17:50;14.20;91.80
49222;DHT22;35047;37.588;-122.048;2024-01-15T07:20:17;14.20;91.70
49222;DHT22;35047;37.588;-122.048;2024-01-15T07:22:45;14.10;91.60
49222;DHT22;35047;37.588;-122.048;2024-01-15T07:25:11;14.10;91.80
49222;DHT22;35047;37.588;-122.048;2024-01-15T07:27:38;14.10;91.80
49222;DHT22;35047;37.588;-122.048;2024-01-15T07:30:06;14.10;91.90
49222;DHT22;35047;37.588;-122.048;2024-01-15T07:32:32;14.10;92.00
49222;DHT22;35047;37.588;-122.048;2024-01-15T07:34:59;14.10;92.00
49222;DHT22;35047;37.588;-122.048;2024-01-15T07:37:25;14.00;91.90
49222;DHT22;35047;37.588;-122.048;2024-01-15T07:39:52;14.00;91.90
49222;DHT22;35047;37.588;-122.048;2024-01-15T07:42:18;14.00;91.80
49222;DHT22;35047;37.588;-122.048;2024-01-15T07:44:46;14.00;92.30
49222;DHT22;35047;37.588;-122.048;2024-01-15T07:47:13;14.00;92.00
49222;DHT22;35047;37.588;-122.048;2024-01-15T07:49:39;14.00;92.20
49222;DHT22;35047;37.588;-122.048;2024-01-15T07:52:06;14.00;92.30
49222;DHT22;35047;37.588;-122.048;2024-01-15T07:54:32;13.90;92.30
49222;DHT22;35047;37.588;-122.048;2024-01-15T07:57:00;13.90;92.40
49222;DHT22;35047;37.588;-122.048;2024-01-15T07:59:29;13.90;92.60
49222;DHT22;35047;37.588;-122.048;2024-01-15T08:01:55;13.90;92.60
49222;DHT22;35047;37.588;-122.048;2024-01-15T08:04:22;13.90;92.50
49222;DHT22;35047;37.588;-122.048;2024-01-15T08:06:48;13.90;92.40
49222;DHT22;35047;37.588;-122.048;2024-01-15T08:09:15;13.90;92.50
49222;DHT22;35047;37.588;-122.048;2024-01-15T08:11:44;13.80;92.40
49222;DHT22;35047;37.588;-122.048;2024-01-15T08:14:11;13.80;92.50
49222;DHT22;35047;37.588;-122.048;2024-01-15T08:16:38;13.80;92.50
49222;DHT22;35047;37.588;-122.048;2024-01-15T08:19:05;13.80;92.60
49222;DHT22;35047;37.588;-122.048;2024-01-15T08:21:32;13.80;92.70
49222;DHT22;35047;37.588;-122.048;2024-01-15T08:23:59;13.80;92.60
49222;DHT22;35047;37.588;-122.048;2024-01-15T08:26:26;13.80;92.60
49222;DHT22;35047;37.588;-122.048;2024-01-15T08:28:52;13.80;92.60
49222;DHT22;35047;37.588;-122.048;2024-01-15T08:31:19;13.80;92.60
49222;DHT22;35047;37.588;-122.048;2024-01-15T08:33:45;13.80;92.60
49222;DHT22;35047;37.588;-122.048;2024-01-15T08:36:12;13.70;92.60
49222;DHT22;35047;37.588;-122.048;2024-01-15T08:38:39;13.70;92.60
49222;DHT22;35047;37.588;-122.048;2024-01-15T08:41:05;13.70;92.50
49222;DHT22;35047;37.588;-122.048;2024-01-15T08:43:34;13.70;92.70
49222;DHT22;35047;37.588;-122.048;2024-01-15T08:46:02;13.80;92.80
49222;DHT22;35047;37.588;-122.048;2024-01-15T08:48:28;13.80;92.80
49222;DHT22;35047;37.588;-122.048;2024-01-15T08:50:55;13.70;92.80
49222;DHT22;35047;37.588;-122.048;2024-01-15T08:53:23;13.70;92.70
49222;DHT22;35047;37.588;-122.048;2024-01-15T08:55:50;13.70;92.60
49222;DHT22;35047;37.588;-122.048;2024-01-15T08:58:17;13.70;92.50
49222;DHT22;35047;37.588;-122.048;2024-01-15T09:00:43;13.70;92.60
49222;DHT22;35047;37.588;-122.048;2024-01-15T09:03:10;13.70;92.60
49222;DHT22;35047;37.588;-122.048;2024-01-15T09:05:36;13.70;92.60
49222;DHT22;35047;37.588;-122.048;2024-01-15T09:08:03;13.70;92.60
49222;DHT22;35047;37.588;-122.048;2024-01-15T09:10:30;13.60;92.60
49222;DHT22;35047;37.588;-122.048;2024-01-15T09:12:56;13.70;92.70
49222;DHT22;35047;37.588;-122.048;2024-01-15T09:15:23;13.70;92.90
49222;DHT22;35047;37.588;-122.048;2024-01-15T09:17:50;13.70;92.90
49222;DHT22;35047;37.588;-122.048;2024-01-15T09:20:16;13.60;92.90
49222;DHT22;35047;37.588;-122.048;2024-01-15T09:22:43;13.70;92.90
49222;DHT22;35047;37.588;-122.048;2024-01-15T09:25:10;13.70;92.80
49222;DHT22;35047;37.588;-122.048;2024-01-15T09:27:37;13.60;92.70
49222;DHT22;35047;37.588;-122.048;2024-01-15T09:30:04;13.60;92.80
49222;DHT22;35047;37.588;-122.048;2024-01-15T09:32:31;13.60;92.70
49222;DHT22;35047;37.588;-122.048;2024-01-15T09:34:58;13.60;92.60
49222;DHT22;35047;37.588;-122.048;2024-01-15T09:37:25;13.60;92.60
49222;DHT22;35047;37.588;-122.048;2024-01-15T09:39:51;13.60;92.60
49222;DHT22;35047;37.588;-122.048;2024-01-15T09:42:19;13.60;92.70
49222;DHT22;35047;37.588;-122.048;2024-01-15T09:44:46;13.60;92.80
49222;DHT22;35047;37.588;-122.048;2024-01-15T09:47:13;13.60;92.80
49222;DHT22;35047;37.588;-122.048;2024-01-15T09:49:42;13.50;92.80
49222;DHT22;35047;37.588;-122.048;2024-01-15T09:52:11;13.50;92.80
49222;DHT22;35047;37.588;-122.048;2024-01-15T09:54:37;13.50;92.90
49222;DHT22;35047;37.588;-122.048;2024-01-15T09:57:07;13.50;92.90
49222;DHT22;35047;37.588;-122.048;2024-01-15T09:59:34;13.50;92.90
49222;DHT22;35047;37.588;-122.048;2024-01-15T10:02:01;13.50;93.00
49222;DHT22;35047;37.588;-122.048;2024-01-15T10:04:29;13.50;93.00
49222;DHT22;35047;37.588;-122.048;2024-01-15T10:06:56;13.50;93.00
49222;DHT22;35047;37.588;-122.048;2024-01-15T10:09:24;13.50;93.10
49222;DHT22;35047;37.588;-122.048;2024-01-15T10:11:50;13.50;93.10
49222;DHT22;35047;37.588;-122.048;2024-01-15T10:14:17;13.50;93.00
49222;DHT22;35047;37.588;-122.048;2024-01-15T10:16:43;13.50;93.10
49222;DHT22;35047;37.588;-122.048;2024-01-15T10:19:10;13.40;93.20
49222;DHT22;35047;37.588;-122.048;2024-01-15T10:21:37;13.40;93.20
49222;DHT22;35047;37.588;-122.048;2024-01-15T10:24:04;13.40;93.00
49222;DHT22;35047;37.588;-122.048;2024-01-15T10:26:31;13.40;92.90
49222;DHT22;35047;37.588;-122.048;2024-01-15T10:29:01;13.40;92.90
49222;DHT22;35047;37.588;-122.048;2024-01-15T10:31:28;13.40;93.00
49222;DHT22;35047;37.588;-122.048;2024-01-15T10:34:10;13.40;93.10
49222;DHT22;35047;37.588;-122.048;2024-01-15T10:36:40;13.40;93.10
49222;DHT22;35047;37.588;-122.048;2024-01-15T10:39:06;13.40;93.10
49222;DHT22;35047;37.588;-122.048;2024-01-15T10:41:38;13.40;93.10
49222;DHT22;35047;37.588;-122.048;2024-01-15T10:44:08;13.40;93.10
49222;DHT22;35047;37.588;-122.048;2024-01-15T10:46:34;13.40;93.30
49222;DHT22;35047;37.588;-122.048;2024-01-15T10:49:01;13.40;93.20
49222;DHT22;35047;37.588;-122.048;2024-01-15T10:51:28;13.40;93.20
49222;DHT22;35047;37.588;-122.048;2024-01-15T10:53:55;13.40;93.30
49222;DHT22;35047;37.588;-122.048;2024-01-15T10:56:22;13.40;93.30
49222;DHT22;35047;37.588;-122.048;2024-01-15T10:58:50;13.40;93.30
49222;DHT22;35047;37.588;-122.048;2024-01-15T11:01:17;13.40;93.40
49222;DHT22;35047;37.588;-122.048;2024-01-15T11:03:45;13.40;93.30
49222;DHT22;35047;37.588;-122.048;2024-01-15T11:06:19;13.40;93.40
49222;DHT22;35047;37.588;-122.048;2024-01-15T11:08:50;13.40;93.40
49222;DHT22;35047;37.588;-122.048;2024-01-15T11:11:17;13.40;93.30
49222;DHT22;35047;37.588;-122.048;2024-01-15T11:13:46;13.40;93.40
49222;DHT22;35047;37.588;-122.048;2024-01-15T11:16:16;13.30;93.20
49222;DHT22;35047;37.588;-122.048;2024-01-15T11:21:26;13.30;93.10
49222;DHT22;35047;37.588;-122.048;2024-01-15T11:23:58;13.30;93.10
49222;DHT22;35047;37.588;-122.048;2024-01-15T11:26:37;13.30;93.10
49222;DHT22;35047;37.588;-122.048;2024-01-15T11:29:10;13.30;93.00
49222;DHT22;35047;37.588;-122.048;2024-01-15T11:34:09;13.30;93.10
49222;DHT22;35047;37.588;-122.048;2024-01-15T11:42:00;13.30;93.50
49222;DHT22;35047;37.588;-122.048;2024-01-15T11:44:27;13.30;93.50
49222;DHT22;35047;37.588;-122.048;2024-01-15T11:47:01;13.30;93.40
49222;DHT22;35047;37.588;-122.048;2024-01-15T11:52:20;13.30;93.30
49222;DHT22;35047;37.588;-122.048;2024-01-15T12:00:03;13.30;93.40
49222;DHT22;35047;37.588;-122.048;2024-01-15T12:02:30;13.30;93.30
49222;DHT22;35047;37.588;-122.048;2024-01-15T12:04:57;13.30;93.30
49222;DHT22;35047;37.588;-122.048;2024-01-15T12:07:23;13.30;93.20
49222;DHT22;35047;37.588;-122.048;2024-01-15T12:09:50;13.30;93.20
49222;DHT22;35047;37.588;-122.048;2024-01-15T12:12:47;13.30;93.00
49222;DHT22;35047;37.588;-122.048;2024-01-15T12:15:15;13.20;93.00
49222;DHT22;35047;37.588;-122.048;2024-01-15T12:17:42;13.30;93.00
49222;DHT22;35047;37.588;-122.048;2024-01-15T12:20:09;13.30;93.00
49222;DHT22;35047;37.588;-122.048;2024-01-15T12:22:36;13.30;92.90
49222;DHT22;35047;37.588;-122.048;2024-01-15T12:25:05;13.30;92.80
49222;DHT22;35047;37.588;-122.048;2024-01-15T12:27:32;13.20;92.90
49222;DHT22;35047;37.588;-122.048;2024-01-15T12:29:59;13.30;93.00
49222;DHT22;35047;37.588;-122.048;2024-01-15T12:32:25;13.30;93.00
49222;DHT22;35047;37.588;-122.048;2024-01-15T12:34:52;13.30;93.00
49222;DHT22;35047;37.588;-122.048;2024-01-15T12:37:19;13.30;93.00
49222;DHT22;35047;37.588;-122.048;2024-01-15T12:39:46;13.30;93.00
49222;DHT22;35047;37.588;-122.048;2024-01-15T12:42:14;13.30;93.00
49222;DHT22;35047;37.588;-122.048;2024-01-15T12:44:44;13.20;92.90
49222;DHT22;35047;37.588;-122.048;2024-01-15T12:47:11;13.20;92.90
49222;DHT22;35047;37.588;-122.048;2024-01-15T12:49:39;13.20;92.90
49222;DHT22;35047;37.588;-122.048;2024-01-15T12:52:11;13.20;93.10
49222;DHT22;35047;37.588;-122.048;2024-01-15T12:54:37;13.20;93.00
49222;DHT22;35047;37.588;-122.048;2024-01-15T12:57:04;13.20;93.00
49222;DHT22;35047;37.588;-122.048;2024-01-15T12:59:30;13.20;92.90
49222;DHT22;35047;37.588;-122.048;2024-01-15T13:01:57;13.20;92.90
49222;DHT22;35047;37.588;-122.048;2024-01-15T13:04:24;13.20;92.90
49222;DHT22;35047;37.588;-122.048;2024-01-15T13:06:51;13.20;92.80
49222;DHT22;35047;37.588;-122.048;2024-01-15T13:09:18;13.20;93.00
49222;DHT22;35047;37.588;-122.048;2024-01-15T13:11:45;13.10;93.00
49222;DHT22;35047;37.588;-122.048;2024-01-15T13:14:12;13.10;92.90
49222;DHT22;35047;37.588;-122.048;2024-01-15T13:16:42;13.10;92.90
49222;DHT22;35047;37.588;-122.048;2024-01-15T13:19:09;13.10;92.80
49222;DHT22;35047;37.588;-122.048;2024-01-15T13:21:41;13.10;92.80
49222;DHT22;35047;37.588;-122.048;2024-01-15T13:24:08;13.10;93.00
49222;DHT22;35047;37.588;-122.048;2024-01-15T13:26:35;13.10;93.30
49222;DHT22;35047;37.588;-122.048;2024-01-15T13:29:03;13.10;93.30
49222;DHT22;35047;37.588;-122.048;2024-01-15T13:31:33;13.10;93.30
49222;DHT22;35047;37.588;-122.048;2024-01-15T13:34:00;13.10;93.20
49222;DHT22;35047;37.588;-122.048;2024-01-15T13:36:27;13.10;93.30
49222;DHT22;35047;37.588;-122.048;2024-01-15T13:38:54;13.00;93.30
49222;DHT22;35047;37.588;-122.048;2024-01-15T13:41:21;13.10;93.30
49222;DHT22;35047;37.588;-122.048;2024-01-15T13:43:51;13.10;93.20
49222;DHT22;35047;37.588;-122.048;2024-01-15T13:46:23;13.10;93.20
49222;DHT22;35047;37.588;-122.048;2024-01-15T13:48:49;13.10;93.20
49222;DHT22;35047;37.588;-122.048;2024-01-15T13:51:16;13.10;93.00
49222;DHT22;35047;37.588;-122.048;2024-01-15T13:53:42;13.10;93.10
49222;DHT22;35047;37.588;-122.048;2024-01-15T13:56:09;13.10;93.00
49222;DHT22;35047;37.588;-122.048;2024-01-15T13:58:36;13.10;92.90
49222;DHT22;35047;37.588;-122.048;2024-01-15T14:01:03;13.10;92.90
49222;DHT22;35047;37.588;-122.048;2024-01-15T14:03:32;13.00;92.90
49222;DHT22;35047;37.588;-122.048;2024-01-15T14:06:00;13.00;92.90
49222;DHT22;35047;37.588;-122.048;2024-01-15T14:08:28;13.00;93.00
49222;DHT22;35047;37.588;-122.048;2024-01-15T14:10:55;13.00;92.90
49222;DHT22;35047;37.588;-122.048;2024-01-15T14:13:23;13.00;92.80
49222;DHT22;35047;37.588;-122.048;2024-01-15T14:15:49;12.90;92.70
49222;DHT22;35047;37.588;-122.048;2024-01-15T14:18:19;13.00;92.90
49222;DHT22;35047;37.588;-122.048;2024-01-15T14:20:45;13.00;92.80
49222;DHT22;35047;37.588;-122.048;2024-01-15T14:23:13;13.00;92.80
49222;DHT22;35047;37.588;-122.048;2024-01-15T14:25:40;13.00;92.80
49222;DHT22;35047;37.588;-122.048;2024-01-15T14:28:06;12.90;92.90
49222;DHT22;35047;37.588;-122.048;2024-01-15T14:30:33;12.90;92.80
49222;DHT22;35047;37.588;-122.048;2024-01-15T14:32:59;12.90;92.80
49222;DHT22;35047;37.588;-122.048;2024-01-15T14:35:26;12.90;92.80
49222;DHT22;35047;37.588;-122.048;2024-01-15T14:37:52;12.90;92.90
49222;DHT22;35047;37.588;-122.048;2024-01-15T14:40:19;12.90;92.80
49222;DHT22;35047;37.588;-122.048;2024-01-15T14:42:45;12.80;92.70
49222;DHT22;35047;37.588;-122.048;2024-01-15T14:45:12;12.80;92.80
49222;DHT22;35047;37.588;-122.048;2024-01-15T14:47:39;12.80;92.80
49222;DHT22;35047;37.588;-122.048;2024-01-15T14:50:09;12.80;93.00
49222;DHT22;35047;37.588;-122.048;2024-01-15T14:52:39;12.80;92.90
49222;DHT22;35047;37.588;-122.048;2024-01-15T14:55:08;12.80;93.00
49222;DHT22;35047;37.588;-122.048;2024-01-15T14:57:37;12.80;93.00
49222;DHT22;35047;37.588;-122.048;2024-01-15T15:00:05;12.80;93.20
49222;DHT22;35047;37.588;-122.048;2024-01-15T15:02:35;12.80;93.30
49222;DHT22;35047;37.588;-122.048;2024-01-15T15:05:02;12.80;93.40
49222;DHT22;35047;37.588;-122.048;2024-01-15T15:07:28;12.80;93.30